QFA225 YSSY-YMML
Flight info
| Callsign | QFA225 |
|---|---|
| Flight time | 1h 13m |
| Altitude | 38000 |
| Route | MARUB7/34R WOL H65 LEECE Q29 ML |
| Aircraft | B738/M-SDE2E3FGHIRWXY/LB1 |
Departure
| Time | 2026-05-04 12:29 |
|---|---|
| Airport | Sydney Kingsford Smith International Airport (YSSY) |
Arrival
| Time | 2026-05-04 13:42 |
|---|---|
| Airport | Melbourne Airport (YMML) |
| Time | Latitude | Longitude | Altitude | Speed | Heading |
|---|---|---|---|---|---|
| 2026-05-04 11:57 | -33.93103 | 151.17672 | 31 ft | 0 kts | 188° |
| 2026-05-04 12:14 | -33.93041 | 151.17718 | 31 ft | 0 kts | 281° |
| 2026-05-04 12:15 | -33.93043 | 151.17730 | 31 ft | 0 kts | 298° |
| 2026-05-04 12:19 | -33.93038 | 151.17718 | 31 ft | 3 kts | 297° |
| 2026-05-04 12:19 | -33.93024 | 151.17679 | 31 ft | 7 kts | 291° |
| 2026-05-04 12:19 | -33.93009 | 151.17611 | 31 ft | 10 kts | 280° |
| 2026-05-04 12:20 | -33.93043 | 151.17542 | 31 ft | 11 kts | 211° |
| 2026-05-04 12:20 | -33.93104 | 151.17523 | 31 ft | 8 kts | 175° |
| 2026-05-04 12:20 | -33.93166 | 151.17538 | 29 ft | 10 kts | 168° |
| 2026-05-04 12:20 | -33.93245 | 151.17560 | 31 ft | 13 kts | 168° |
| 2026-05-04 12:21 | -33.93340 | 151.17583 | 31 ft | 15 kts | 169° |
| 2026-05-04 12:21 | -33.93447 | 151.17587 | 31 ft | 16 kts | 187° |
| 2026-05-04 12:21 | -33.93561 | 151.17605 | 31 ft | 17 kts | 167° |
| 2026-05-04 12:21 | -33.93675 | 151.17655 | 31 ft | 18 kts | 151° |
| 2026-05-04 12:22 | -33.93774 | 151.17694 | 31 ft | 10 kts | 168° |
| 2026-05-04 12:22 | -33.93785 | 151.17697 | 31 ft | 0 kts | 168° |
| 2026-05-04 12:24 | -33.93800 | 151.17702 | 31 ft | 4 kts | 159° |
| 2026-05-04 12:24 | -33.93836 | 151.17732 | 31 ft | 9 kts | 137° |
| 2026-05-04 12:24 | -33.93907 | 151.17780 | 30 ft | 15 kts | 163° |
| 2026-05-04 12:25 | -33.94020 | 151.17813 | 30 ft | 19 kts | 167° |
| 2026-05-04 12:25 | -33.94156 | 151.17848 | 31 ft | 21 kts | 168° |
| 2026-05-04 12:25 | -33.94308 | 151.17886 | 31 ft | 24 kts | 168° |
| 2026-05-04 12:25 | -33.94472 | 151.17895 | 31 ft | 24 kts | 194° |
| 2026-05-04 12:26 | -33.94634 | 151.17911 | 29 ft | 24 kts | 168° |
| 2026-05-04 12:26 | -33.94800 | 151.17955 | 31 ft | 25 kts | 168° |
| 2026-05-04 12:26 | -33.94968 | 151.17998 | 31 ft | 25 kts | 167° |
| 2026-05-04 12:26 | -33.95133 | 151.18039 | 31 ft | 21 kts | 175° |
| 2026-05-04 12:27 | -33.95205 | 151.17939 | 31 ft | 16 kts | 257° |
| 2026-05-04 12:27 | -33.95220 | 151.17812 | 30 ft | 14 kts | 272° |
| 2026-05-04 12:27 | -33.95177 | 151.17742 | 28 ft | 9 kts | 336° |
| 2026-05-04 12:27 | -33.95081 | 151.17711 | 28 ft | 22 kts | 346° |
| 2026-05-04 12:28 | -33.94849 | 151.17651 | 29 ft | 60 kts | 348° |
| 2026-05-04 12:28 | -33.94240 | 151.17489 | 32 ft | 116 kts | 347° |
| 2026-05-04 12:28 | -33.93333 | 151.17263 | 152 ft | 146 kts | 349° |
| 2026-05-04 12:28 | -33.92301 | 151.17037 | 606 ft | 153 kts | 351° |
| 2026-05-04 12:29 | -33.91272 | 151.16754 | 1110 ft | 160 kts | 327° |
| 2026-05-04 12:29 | -33.90601 | 151.15679 | 1613 ft | 164 kts | 296° |
| 2026-05-04 12:29 | -33.90228 | 151.14357 | 1876 ft | 170 kts | 291° |
| 2026-05-04 12:29 | -33.89850 | 151.12968 | 2023 ft | 180 kts | 292° |
| 2026-05-04 12:30 | -33.89411 | 151.11485 | 2109 ft | 196 kts | 292° |
| 2026-05-04 12:30 | -33.88921 | 151.09901 | 2216 ft | 206 kts | 293° |
| 2026-05-04 12:30 | -33.88430 | 151.08316 | 2476 ft | 200 kts | 291° |
| 2026-05-04 12:30 | -33.87969 | 151.06731 | 2844 ft | 205 kts | 291° |
| 2026-05-04 12:31 | -33.87484 | 151.05115 | 3093 ft | 209 kts | 291° |
| 2026-05-04 12:31 | -33.86976 | 151.03448 | 3784 ft | 209 kts | 290° |
| 2026-05-04 12:31 | -33.86484 | 151.01826 | 4686 ft | 205 kts | 290° |
| 2026-05-04 12:31 | -33.86028 | 151.00215 | 5492 ft | 204 kts | 283° |
| 2026-05-04 12:32 | -33.85929 | 150.98499 | 6222 ft | 207 kts | 275° |
| 2026-05-04 12:32 | -33.85949 | 150.94996 | 7589 ft | 217 kts | 258° |
| 2026-05-04 12:32 | -33.86665 | 150.93352 | 8234 ft | 231 kts | 234° |
| 2026-05-04 12:33 | -33.87995 | 150.92179 | 8898 ft | 247 kts | 207° |
| 2026-05-04 12:33 | -33.89736 | 150.91879 | 9551 ft | 263 kts | 174° |
| 2026-05-04 12:33 | -33.91455 | 150.92624 | 10179 ft | 271 kts | 153° |
| 2026-05-04 12:33 | -33.93107 | 150.93759 | 10785 ft | 275 kts | 152° |
| 2026-05-04 12:34 | -33.94926 | 150.94306 | 11383 ft | 270 kts | 192° |
| 2026-05-04 12:34 | -33.96746 | 150.93848 | 11996 ft | 268 kts | 201° |
| 2026-05-04 12:34 | -33.98556 | 150.93251 | 12603 ft | 272 kts | 200° |
| 2026-05-04 12:34 | -34.00423 | 150.92741 | 13245 ft | 277 kts | 197° |
| 2026-05-04 12:35 | -34.02339 | 150.92307 | 13876 ft | 282 kts | 196° |
| 2026-05-04 12:35 | -34.04271 | 150.91856 | 14447 ft | 284 kts | 198° |
| 2026-05-04 12:35 | -34.06219 | 150.91370 | 15031 ft | 287 kts | 198° |
| 2026-05-04 12:35 | -34.08189 | 150.90877 | 15619 ft | 291 kts | 198° |
| 2026-05-04 12:36 | -34.10183 | 150.90388 | 16205 ft | 294 kts | 198° |
| 2026-05-04 12:36 | -34.12197 | 150.89896 | 16792 ft | 297 kts | 198° |
| 2026-05-04 12:36 | -34.14204 | 150.89403 | 17384 ft | 299 kts | 198° |
| 2026-05-04 12:36 | -34.16257 | 150.88896 | 17965 ft | 302 kts | 198° |
| 2026-05-04 12:37 | -34.18325 | 150.88386 | 18513 ft | 305 kts | 198° |
| 2026-05-04 12:37 | -34.20415 | 150.87871 | 19013 ft | 308 kts | 199° |
| 2026-05-04 12:37 | -34.22519 | 150.87353 | 19514 ft | 310 kts | 199° |
| 2026-05-04 12:37 | -34.24643 | 150.86829 | 20009 ft | 312 kts | 199° |
| 2026-05-04 12:38 | -34.26777 | 150.86302 | 20529 ft | 315 kts | 199° |
| 2026-05-04 12:38 | -34.28934 | 150.85769 | 21011 ft | 317 kts | 200° |
| 2026-05-04 12:38 | -34.31102 | 150.85233 | 21486 ft | 320 kts | 200° |
| 2026-05-04 12:38 | -34.33291 | 150.84692 | 21965 ft | 322 kts | 200° |
| 2026-05-04 12:39 | -34.35496 | 150.84147 | 22446 ft | 324 kts | 200° |
| 2026-05-04 12:39 | -34.37723 | 150.83596 | 22923 ft | 326 kts | 200° |
| 2026-05-04 12:39 | -34.39956 | 150.83043 | 23397 ft | 329 kts | 200° |
| 2026-05-04 12:39 | -34.42205 | 150.82485 | 23789 ft | 331 kts | 201° |
| 2026-05-04 12:40 | -34.44469 | 150.81925 | 24144 ft | 333 kts | 201° |
| 2026-05-04 12:40 | -34.46733 | 150.81366 | 24622 ft | 331 kts | 201° |
| 2026-05-04 12:40 | -34.48977 | 150.80812 | 25006 ft | 327 kts | 201° |
| 2026-05-04 12:40 | -34.51193 | 150.80261 | 25039 ft | 325 kts | 201° |
| 2026-05-04 12:41 | -34.53415 | 150.79697 | 25121 ft | 327 kts | 204° |
| 2026-05-04 12:41 | -34.55456 | 150.78687 | 25472 ft | 309 kts | 225° |
| 2026-05-04 12:41 | -34.57037 | 150.77038 | 25827 ft | 292 kts | 243° |
| 2026-05-04 12:41 | -34.58248 | 150.75079 | 26198 ft | 291 kts | 245° |
| 2026-05-04 12:42 | -34.59428 | 150.73112 | 26537 ft | 293 kts | 245° |
| 2026-05-04 12:42 | -34.60633 | 150.71108 | 26889 ft | 295 kts | 245° |
| 2026-05-04 12:42 | -34.61851 | 150.69089 | 27252 ft | 297 kts | 245° |
| 2026-05-04 12:42 | -34.63081 | 150.67048 | 27539 ft | 302 kts | 245° |
| 2026-05-04 12:43 | -34.64333 | 150.64963 | 27759 ft | 309 kts | 245° |
| 2026-05-04 12:43 | -34.65612 | 150.62837 | 28030 ft | 314 kts | 245° |
| 2026-05-04 12:43 | -34.66912 | 150.60677 | 28247 ft | 321 kts | 244° |
| 2026-05-04 12:43 | -34.68249 | 150.58446 | 28309 ft | 332 kts | 244° |
| 2026-05-04 12:44 | -34.69634 | 150.56136 | 28387 ft | 344 kts | 244° |
| 2026-05-04 12:44 | -34.71066 | 150.53754 | 28537 ft | 353 kts | 244° |
| 2026-05-04 12:44 | -34.72527 | 150.51324 | 28728 ft | 360 kts | 243° |
| 2026-05-04 12:44 | -34.74015 | 150.48843 | 28943 ft | 365 kts | 243° |
| 2026-05-04 12:45 | -34.75524 | 150.46321 | 29126 ft | 372 kts | 243° |
| 2026-05-04 12:45 | -34.77066 | 150.43739 | 29205 ft | 383 kts | 243° |
| 2026-05-04 12:45 | -34.78653 | 150.41085 | 29212 ft | 394 kts | 243° |
| 2026-05-04 12:46 | -34.81953 | 150.35564 | 29325 ft | 412 kts | 242° |
| 2026-05-04 12:46 | -34.83655 | 150.32715 | 29487 ft | 418 kts | 242° |
| 2026-05-04 12:46 | -34.85370 | 150.29840 | 29702 ft | 423 kts | 242° |
| 2026-05-04 12:46 | -34.87116 | 150.26910 | 29984 ft | 428 kts | 242° |
| 2026-05-04 12:47 | -34.88870 | 150.23965 | 30237 ft | 432 kts | 242° |
| 2026-05-04 12:47 | -34.90041 | 150.21992 | 30371 ft | 433 kts | 242° |
| 2026-05-04 12:47 | -34.92414 | 150.18001 | 30733 ft | 437 kts | 242° |
| 2026-05-04 12:47 | -34.93596 | 150.16013 | 30955 ft | 438 kts | 242° |
| 2026-05-04 12:48 | -34.95388 | 150.12994 | 31260 ft | 440 kts | 242° |
| 2026-05-04 12:48 | -34.97181 | 150.09967 | 31616 ft | 441 kts | 242° |
| 2026-05-04 12:48 | -34.98984 | 150.06923 | 31940 ft | 443 kts | 242° |
| 2026-05-04 12:48 | -35.00788 | 150.03876 | 32267 ft | 444 kts | 242° |
| 2026-05-04 12:49 | -35.02602 | 150.00809 | 32612 ft | 446 kts | 242° |
| 2026-05-04 12:49 | -35.04416 | 149.97738 | 32946 ft | 447 kts | 242° |
| 2026-05-04 12:49 | -35.06233 | 149.94659 | 33269 ft | 448 kts | 242° |
| 2026-05-04 12:49 | -35.08055 | 149.91573 | 33726 ft | 446 kts | 242° |
| 2026-05-04 12:50 | -35.09865 | 149.88506 | 34232 ft | 444 kts | 242° |
| 2026-05-04 12:50 | -35.11663 | 149.85453 | 34657 ft | 441 kts | 243° |
| 2026-05-04 12:50 | -35.13448 | 149.82416 | 35098 ft | 439 kts | 243° |
| 2026-05-04 12:50 | -35.15228 | 149.79386 | 35486 ft | 438 kts | 243° |
| 2026-05-04 12:51 | -35.17000 | 149.76370 | 35850 ft | 437 kts | 242° |
| 2026-05-04 12:51 | -35.18748 | 149.73390 | 36192 ft | 436 kts | 242° |
| 2026-05-04 12:51 | -35.20513 | 149.70379 | 36517 ft | 436 kts | 242° |
| 2026-05-04 12:51 | -35.22285 | 149.67356 | 36829 ft | 436 kts | 242° |
| 2026-05-04 12:52 | -35.24050 | 149.64341 | 37146 ft | 437 kts | 242° |
| 2026-05-04 12:52 | -35.25818 | 149.61318 | 37464 ft | 437 kts | 242° |
| 2026-05-04 12:52 | -35.27587 | 149.58290 | 37822 ft | 437 kts | 242° |
| 2026-05-04 12:52 | -35.29350 | 149.55270 | 38094 ft | 436 kts | 242° |
| 2026-05-04 12:53 | -35.31110 | 149.52256 | 38100 ft | 433 kts | 242° |
| 2026-05-04 12:53 | -35.34588 | 149.46286 | 38096 ft | 429 kts | 242° |
| 2026-05-04 12:54 | -35.38039 | 149.40351 | 38096 ft | 427 kts | 242° |
| 2026-05-04 12:54 | -35.41479 | 149.34426 | 38097 ft | 427 kts | 242° |
| 2026-05-04 12:55 | -35.44920 | 149.28488 | 38101 ft | 427 kts | 242° |
| 2026-05-04 12:55 | -35.48354 | 149.22555 | 38105 ft | 426 kts | 242° |
| 2026-05-04 12:56 | -35.51782 | 149.16619 | 38101 ft | 426 kts | 242° |
| 2026-05-04 12:56 | -35.55211 | 149.10674 | 38110 ft | 426 kts | 242° |
| 2026-05-04 12:57 | -35.58640 | 149.04718 | 38112 ft | 427 kts | 242° |
| 2026-05-04 12:57 | -35.62064 | 148.98760 | 38115 ft | 427 kts | 242° |
| 2026-05-04 12:58 | -35.65492 | 148.92785 | 38110 ft | 427 kts | 242° |
| 2026-05-04 12:58 | -35.68917 | 148.86804 | 38115 ft | 428 kts | 242° |
| 2026-05-04 12:59 | -35.72339 | 148.80820 | 38102 ft | 428 kts | 243° |
| 2026-05-04 12:59 | -35.75758 | 148.74832 | 38097 ft | 427 kts | 242° |
| 2026-05-04 13:00 | -35.79169 | 148.68841 | 38100 ft | 427 kts | 242° |
| 2026-05-04 13:00 | -35.82577 | 148.62853 | 38096 ft | 427 kts | 242° |
| 2026-05-04 13:01 | -35.85966 | 148.56883 | 38101 ft | 429 kts | 242° |
| 2026-05-04 13:01 | -35.89400 | 148.50822 | 38095 ft | 428 kts | 243° |
| 2026-05-04 13:02 | -35.92772 | 148.44830 | 38102 ft | 429 kts | 242° |
| 2026-05-04 13:02 | -35.96178 | 148.38782 | 38091 ft | 429 kts | 242° |
| 2026-05-04 13:03 | -35.99582 | 148.32719 | 38121 ft | 429 kts | 242° |
| 2026-05-04 13:03 | -36.02980 | 148.26662 | 38097 ft | 428 kts | 242° |
| 2026-05-04 13:04 | -36.06374 | 148.20594 | 38108 ft | 429 kts | 242° |
| 2026-05-04 13:04 | -36.09783 | 148.14492 | 38105 ft | 432 kts | 242° |
| 2026-05-04 13:05 | -36.13198 | 148.08376 | 38108 ft | 432 kts | 242° |
| 2026-05-04 13:05 | -36.16621 | 148.02265 | 38104 ft | 432 kts | 242° |
| 2026-05-04 13:06 | -36.20008 | 147.96190 | 38100 ft | 432 kts | 242° |
| 2026-05-04 13:06 | -36.23424 | 147.90064 | 38102 ft | 431 kts | 242° |
| 2026-05-04 13:07 | -36.26819 | 147.83960 | 38112 ft | 429 kts | 242° |
| 2026-05-04 13:07 | -36.30206 | 147.77859 | 38094 ft | 429 kts | 242° |
| 2026-05-04 13:08 | -36.33589 | 147.71755 | 38089 ft | 429 kts | 242° |
| 2026-05-04 13:08 | -36.36962 | 147.65640 | 38085 ft | 429 kts | 242° |
| 2026-05-04 13:09 | -36.40329 | 147.59531 | 38114 ft | 429 kts | 242° |
| 2026-05-04 13:09 | -36.43689 | 147.53421 | 38084 ft | 428 kts | 242° |
| 2026-05-04 13:10 | -36.47048 | 147.47301 | 38083 ft | 428 kts | 242° |
| 2026-05-04 13:10 | -36.50404 | 147.41176 | 38086 ft | 428 kts | 242° |
| 2026-05-04 13:11 | -36.53757 | 147.35046 | 38105 ft | 428 kts | 242° |
| 2026-05-04 13:11 | -36.57099 | 147.28925 | 38067 ft | 428 kts | 242° |
| 2026-05-04 13:12 | -36.60439 | 147.22797 | 38076 ft | 428 kts | 242° |
| 2026-05-04 13:12 | -36.63778 | 147.16659 | 38074 ft | 428 kts | 242° |
| 2026-05-04 13:13 | -36.67112 | 147.10518 | 38101 ft | 428 kts | 242° |
| 2026-05-04 13:13 | -36.70457 | 147.04348 | 38073 ft | 430 kts | 242° |
| 2026-05-04 13:14 | -36.73777 | 146.98210 | 38072 ft | 429 kts | 242° |
| 2026-05-04 13:14 | -36.77106 | 146.92052 | 38080 ft | 427 kts | 242° |
| 2026-05-04 13:15 | -36.80435 | 146.85872 | 38095 ft | 428 kts | 242° |
| 2026-05-04 13:15 | -36.83775 | 146.79668 | 38079 ft | 431 kts | 242° |
| 2026-05-04 13:16 | -36.87111 | 146.73455 | 38075 ft | 431 kts | 242° |
| 2026-05-04 13:16 | -36.90436 | 146.67256 | 37753 ft | 426 kts | 242° |
| 2026-05-04 13:16 | -36.92082 | 146.64182 | 37138 ft | 426 kts | 242° |
| 2026-05-04 13:17 | -36.93727 | 146.61102 | 36577 ft | 425 kts | 243° |
| 2026-05-04 13:17 | -36.95371 | 146.58026 | 36005 ft | 425 kts | 243° |
| 2026-05-04 13:17 | -36.97010 | 146.54958 | 35401 ft | 424 kts | 243° |
| 2026-05-04 13:17 | -36.98643 | 146.51899 | 34805 ft | 423 kts | 243° |
| 2026-05-04 13:18 | -37.00277 | 146.48832 | 34199 ft | 423 kts | 244° |
| 2026-05-04 13:18 | -37.01911 | 146.45763 | 33529 ft | 422 kts | 244° |
| 2026-05-04 13:18 | -37.03536 | 146.42709 | 32918 ft | 419 kts | 244° |
| 2026-05-04 13:18 | -37.05148 | 146.39677 | 32304 ft | 417 kts | 244° |
| 2026-05-04 13:19 | -37.06751 | 146.36655 | 31694 ft | 417 kts | 244° |
| 2026-05-04 13:19 | -37.08348 | 146.33643 | 31091 ft | 415 kts | 244° |
| 2026-05-04 13:19 | -37.09944 | 146.30633 | 30486 ft | 413 kts | 243° |
| 2026-05-04 13:19 | -37.11508 | 146.27681 | 29857 ft | 411 kts | 243° |
| 2026-05-04 13:20 | -37.13082 | 146.24708 | 29257 ft | 407 kts | 243° |
| 2026-05-04 13:20 | -37.14636 | 146.21769 | 28668 ft | 402 kts | 243° |
| 2026-05-04 13:20 | -37.16173 | 146.18857 | 28089 ft | 399 kts | 242° |
| 2026-05-04 13:20 | -37.17694 | 146.15975 | 27504 ft | 395 kts | 242° |
| 2026-05-04 13:21 | -37.19204 | 146.13112 | 26950 ft | 392 kts | 242° |
| 2026-05-04 13:21 | -37.20705 | 146.10261 | 26368 ft | 389 kts | 241° |
| 2026-05-04 13:21 | -37.22190 | 146.07440 | 25812 ft | 386 kts | 241° |
| 2026-05-04 13:21 | -37.23666 | 146.04633 | 25271 ft | 384 kts | 240° |
| 2026-05-04 13:22 | -37.25131 | 146.01840 | 24701 ft | 381 kts | 240° |
| 2026-05-04 13:22 | -37.26584 | 145.99076 | 24194 ft | 378 kts | 239° |
| 2026-05-04 13:22 | -37.28026 | 145.96329 | 23646 ft | 375 kts | 239° |
| 2026-05-04 13:22 | -37.29454 | 145.93607 | 23069 ft | 371 kts | 239° |
| 2026-05-04 13:23 | -37.30866 | 145.90912 | 22532 ft | 367 kts | 239° |
| 2026-05-04 13:23 | -37.32263 | 145.88250 | 22006 ft | 362 kts | 240° |
| 2026-05-04 13:23 | -37.33645 | 145.85624 | 21471 ft | 359 kts | 239° |
| 2026-05-04 13:23 | -37.35012 | 145.83023 | 20982 ft | 354 kts | 240° |
| 2026-05-04 13:24 | -37.36361 | 145.80443 | 20468 ft | 351 kts | 239° |
| 2026-05-04 13:24 | -37.37696 | 145.77894 | 19963 ft | 348 kts | 239° |
| 2026-05-04 13:24 | -37.39025 | 145.75359 | 19474 ft | 345 kts | 239° |
| 2026-05-04 13:25 | -37.41643 | 145.70352 | 18498 ft | 341 kts | 239° |
| 2026-05-04 13:25 | -37.42941 | 145.67867 | 17977 ft | 338 kts | 240° |
| 2026-05-04 13:25 | -37.44223 | 145.65412 | 17503 ft | 334 kts | 240° |
| 2026-05-04 13:25 | -37.45517 | 145.63013 | 17033 ft | 330 kts | 237° |
| 2026-05-04 13:26 | -37.46875 | 145.60699 | 16568 ft | 327 kts | 237° |
| 2026-05-04 13:26 | -37.48214 | 145.58396 | 16106 ft | 324 kts | 237° |
| 2026-05-04 13:26 | -37.49536 | 145.56114 | 15659 ft | 321 kts | 237° |
| 2026-05-04 13:26 | -37.50850 | 145.53854 | 15207 ft | 319 kts | 237° |
| 2026-05-04 13:27 | -37.52155 | 145.51612 | 14758 ft | 316 kts | 237° |
| 2026-05-04 13:27 | -37.53450 | 145.49382 | 14311 ft | 314 kts | 237° |
| 2026-05-04 13:27 | -37.54732 | 145.47169 | 13883 ft | 312 kts | 237° |
| 2026-05-04 13:27 | -37.56005 | 145.44972 | 13426 ft | 309 kts | 237° |
| 2026-05-04 13:28 | -37.57264 | 145.42802 | 13017 ft | 304 kts | 237° |
| 2026-05-04 13:28 | -37.58502 | 145.40664 | 12610 ft | 300 kts | 237° |
| 2026-05-04 13:28 | -37.59315 | 145.39259 | 12364 ft | 298 kts | 237° |
| 2026-05-04 13:28 | -37.60527 | 145.37162 | 11954 ft | 295 kts | 237° |
| 2026-05-04 13:29 | -37.61731 | 145.35077 | 11569 ft | 292 kts | 237° |
| 2026-05-04 13:29 | -37.62924 | 145.33013 | 11176 ft | 290 kts | 237° |
| 2026-05-04 13:29 | -37.64107 | 145.30965 | 10777 ft | 287 kts | 237° |
| 2026-05-04 13:29 | -37.65279 | 145.28933 | 10397 ft | 285 kts | 237° |
| 2026-05-04 13:30 | -37.66440 | 145.26919 | 10015 ft | 283 kts | 237° |
| 2026-05-04 13:30 | -37.67595 | 145.24918 | 9615 ft | 277 kts | 237° |
| 2026-05-04 13:30 | -37.68694 | 145.23012 | 9247 ft | 259 kts | 237° |
| 2026-05-04 13:30 | -37.69718 | 145.21233 | 8914 ft | 243 kts | 237° |
| 2026-05-04 13:31 | -37.70680 | 145.19559 | 8585 ft | 228 kts | 238° |
| 2026-05-04 13:31 | -37.71592 | 145.17970 | 8303 ft | 221 kts | 238° |
| 2026-05-04 13:31 | -37.72492 | 145.16402 | 8047 ft | 219 kts | 237° |
| 2026-05-04 13:31 | -37.73346 | 145.14921 | 7790 ft | 200 kts | 238° |
| 2026-05-04 13:32 | -37.74138 | 145.13544 | 7530 ft | 186 kts | 238° |
| 2026-05-04 13:32 | -37.74869 | 145.12269 | 7291 ft | 173 kts | 238° |
| 2026-05-04 13:32 | -37.75555 | 145.11073 | 7066 ft | 162 kts | 239° |
| 2026-05-04 13:32 | -37.76195 | 145.09956 | 6849 ft | 154 kts | 239° |
| 2026-05-04 13:33 | -37.76822 | 145.08858 | 6656 ft | 153 kts | 239° |
| 2026-05-04 13:33 | -37.77445 | 145.07771 | 6459 ft | 152 kts | 239° |
| 2026-05-04 13:33 | -37.78065 | 145.06688 | 6254 ft | 151 kts | 239° |
| 2026-05-04 13:33 | -37.78668 | 145.05636 | 6061 ft | 150 kts | 239° |
| 2026-05-04 13:34 | -37.79279 | 145.04570 | 5874 ft | 148 kts | 239° |
| 2026-05-04 13:34 | -37.79883 | 145.03513 | 5676 ft | 148 kts | 239° |
| 2026-05-04 13:34 | -37.80481 | 145.02468 | 5489 ft | 147 kts | 239° |
| 2026-05-04 13:34 | -37.81072 | 145.01433 | 5287 ft | 144 kts | 240° |
| 2026-05-04 13:35 | -37.81470 | 145.00301 | 5100 ft | 140 kts | 257° |
| 2026-05-04 13:35 | -37.81886 | 144.97899 | 4726 ft | 139 kts | 257° |
| 2026-05-04 13:35 | -37.82095 | 144.96712 | 4544 ft | 138 kts | 258° |
| 2026-05-04 13:36 | -37.82302 | 144.95536 | 4359 ft | 135 kts | 258° |
| 2026-05-04 13:36 | -37.82505 | 144.94379 | 4184 ft | 135 kts | 259° |
| 2026-05-04 13:36 | -37.82651 | 144.93211 | 4016 ft | 134 kts | 262° |
| 2026-05-04 13:36 | -37.82796 | 144.92040 | 3832 ft | 135 kts | 261° |
| 2026-05-04 13:37 | -37.82941 | 144.90874 | 3641 ft | 134 kts | 262° |
| 2026-05-04 13:37 | -37.83082 | 144.89713 | 3442 ft | 133 kts | 263° |
| 2026-05-04 13:37 | -37.83003 | 144.88574 | 3266 ft | 133 kts | 282° |
| 2026-05-04 13:37 | -37.82470 | 144.87585 | 3090 ft | 141 kts | 310° |
| 2026-05-04 13:38 | -37.81648 | 144.86850 | 2871 ft | 148 kts | 321° |
| 2026-05-04 13:38 | -37.80670 | 144.86402 | 2686 ft | 156 kts | 336° |
| 2026-05-04 13:38 | -37.79577 | 144.86154 | 2476 ft | 159 kts | 340° |
| 2026-05-04 13:38 | -37.78512 | 144.85957 | 2261 ft | 151 kts | 340° |
| 2026-05-04 13:39 | -37.77517 | 144.85780 | 2068 ft | 140 kts | 340° |
| 2026-05-04 13:39 | -37.76543 | 144.85592 | 1887 ft | 141 kts | 340° |
| 2026-05-04 13:39 | -37.75588 | 144.85414 | 1690 ft | 136 kts | 340° |
| 2026-05-04 13:39 | -37.74660 | 144.85239 | 1517 ft | 136 kts | 341° |
| 2026-05-04 13:40 | -37.73735 | 144.85063 | 1331 ft | 129 kts | 345° |
| 2026-05-04 13:40 | -37.72847 | 144.84896 | 1173 ft | 130 kts | 348° |
| 2026-05-04 13:40 | -37.71971 | 144.84735 | 1010 ft | 124 kts | 349° |
| 2026-05-04 13:40 | -37.71116 | 144.84572 | 840 ft | 124 kts | 349° |
| 2026-05-04 13:41 | -37.70259 | 144.84414 | 696 ft | 124 kts | 351° |
| 2026-05-04 13:41 | -37.69401 | 144.84259 | 560 ft | 123 kts | 349° |
| 2026-05-04 13:41 | -37.68569 | 144.84103 | 398 ft | 123 kts | 350° |
| 2026-05-04 13:42 | -37.67399 | 144.83879 | 371 ft | 40 kts | 352° |
| 2026-05-04 13:42 | -37.67145 | 144.83836 | 380 ft | 28 kts | 355° |
| 2026-05-04 13:42 | -37.66992 | 144.83846 | 383 ft | 19 kts | 7° |
| 2026-05-04 13:42 | -37.66881 | 144.83892 | 384 ft | 16 kts | 21° |
| 2026-05-04 13:43 | -37.66780 | 144.83943 | 384 ft | 15 kts | 26° |
| 2026-05-04 13:43 | -37.66684 | 144.83994 | 384 ft | 15 kts | 17° |
| 2026-05-04 13:43 | -37.66589 | 144.84046 | 382 ft | 16 kts | 37° |
| 2026-05-04 13:43 | -37.66541 | 144.84185 | 374 ft | 21 kts | 81° |
| 2026-05-04 13:44 | -37.66516 | 144.84394 | 365 ft | 27 kts | 82° |
| 2026-05-04 13:44 | -37.66488 | 144.84644 | 351 ft | 28 kts | 83° |
| 2026-05-04 13:44 | -37.66477 | 144.84779 | 331 ft | 1 kts | 110° |
| 2026-05-04 13:44 | -37.66494 | 144.84787 | 331 ft | 6 kts | 159° |
| 2026-05-04 13:45 | -37.66541 | 144.84800 | 332 ft | 8 kts | 172° |
| 2026-05-04 13:45 | -37.66601 | 144.84808 | 335 ft | 9 kts | 173° |
| 2026-05-04 13:45 | -37.66668 | 144.84829 | 339 ft | 10 kts | 142° |
| 2026-05-04 13:45 | -37.66680 | 144.84860 | 338 ft | 4 kts | 100° |
| 2026-05-04 13:46 | -37.66679 | 144.84886 | 339 ft | 0 kts | 83° |